Time;durP1;ratioP1;P1;durP2;ratioP2;P2;SDS_P1;SDS_P2;PMS_P1;PMS_P2;Temp;Humidity;BMP_temperature;BMP_pressure;BME280_temperature;BME280_humidity;BME280_pressure;Samples;Min_cycle;Max_cycle;Signal;HPM_P1;HPM_P2
2023/03/29 00:01:29;;;;;;;0.17;0.15;;;;;;;;;;4146770;28;20127;-43
2023/03/29 00:03:32;;;;;;;0.20;0.10;;;;;;;;;;4147039;28;20054;-44
2023/03/29 00:05:34;;;;;;;0.57;0.30;;;;;;;;;;4147357;28;20497;-42
2023/03/29 00:07:36;;;;;;;0.15;0.10;;;;;;;;;;4146908;28;20065;-45
2023/03/29 00:09:37;;;;;;;0.40;0.17;;;;;;;;;;4147281;28;20496;-42
2023/03/29 00:11:38;;;;;;;0.43;0.28;;;;;;;;;;4146660;28;20054;-43
2023/03/29 00:13:40;;;;;;;0.35;0.15;;;;;;;;;;4147252;28;20073;-42
2023/03/29 00:15:42;;;;;;;0.55;0.22;;;;;;;;;;4147399;28;20053;-43
2023/03/29 00:17:43;;;;;;;0.10;0.10;;;;;;;;;;4145631;28;20054;-42
2023/03/29 00:19:44;;;;;;;0.93;0.30;;;;;;;;;;4147195;28;20066;-43
2023/03/29 00:21:46;;;;;;;0.38;0.20;;;;;;;;;;4146797;28;20046;-42
2023/03/29 00:23:48;;;;;;;0.17;0.10;;;;;;;;;;4147405;28;20054;-42
2023/03/29 00:25:53;;;;;;;0.20;0.17;;;;;;;;;;4147113;28;20050;-42
2023/03/29 00:27:54;;;;;;;0.30;0.20;;;;;;;;;;4146836;28;20057;-43
2023/03/29 00:29:56;;;;;;;0.32;0.20;;;;;;;;;;4146658;28;20053;-42
2023/03/29 00:31:58;;;;;;;0.30;0.20;;;;;;;;;;4113008;28;20490;-42
2023/03/29 00:33:59;;;;;;;0.45;0.25;;;;;;;;;;4146772;28;20053;-42
2023/03/29 00:36:04;;;;;;;0.57;0.20;;;;;;;;;;4145590;28;20088;-43
2023/03/29 00:38:06;;;;;;;0.30;0.20;;;;;;;;;;4129226;28;20089;-42
2023/03/29 00:40:10;;;;;;;0.25;0.20;;;;;;;;;;4146912;28;20049;-43
2023/03/29 00:42:13;;;;;;;0.10;0.10;;;;;;;;;;4129026;28;20089;-43
2023/03/29 00:44:52;;;;;;;1.00;0.22;;;;;;;;;;4145840;28;20053;-43
2023/03/29 00:46:53;;;;;;;0.20;0.10;;;;;;;;;;4136314;28;20068;-42
2023/03/29 00:48:59;;;;;;;0.30;0.10;;;;;;;;;;4128279;28;20062;-43
2023/03/29 00:51:06;;;;;;;0.20;0.20;;;;;;;;;;4143847;28;20058;-43
2023/03/29 00:53:18;;;;;;;0.20;0.15;;;;;;;;;;4134296;28;20056;-43
2023/03/29 00:55:22;;;;;;;0.30;0.20;;;;;;;;;;4146152;28;20062;-44
2023/03/29 00:57:25;;;;;;;0.10;0.10;;;;;;;;;;4146290;28;20506;-42
2023/03/29 00:59:27;;;;;;;0.52;0.30;;;;;;;;;;4144385;28;20050;-43
2023/03/29 01:01:43;;;;;;;0.20;0.20;;;;;;;;;;4139992;28;20058;-42
2023/03/29 01:03:49;;;;;;;0.47;0.30;;;;;;;;;;4155214;28;20099;-43
2023/03/29 01:05:53;;;;;;;0.13;0.10;;;;;;;;;;4141612;28;20410;-43
2023/03/29 01:08:02;;;;;;;0.22;0.15;;;;;;;;;;4146277;28;20061;-43
2023/03/29 01:10:26;;;;;;;0.10;0.10;;;;;;;;;;4145195;28;20517;-43
2023/03/29 01:12:31;;;;;;;0.17;0.17;;;;;;;;;;4144792;28;20116;-43
2023/03/29 01:14:34;;;;;;;0.20;0.10;;;;;;;;;;4145501;28;20080;-42
2023/03/29 01:16:39;;;;;;;0.17;0.17;;;;;;;;;;4128883;28;20058;-43
2023/03/29 01:18:41;;;;;;;1.05;0.10;;;;;;;;;;4140008;28;20054;-43
2023/03/29 01:21:13;;;;;;;0.30;0.20;;;;;;;;;;4146078;28;20505;-43
2023/03/29 01:23:25;;;;;;;0.20;0.20;;;;;;;;;;4145127;28;20053;-42
2023/03/29 01:26:04;;;;;;;0.10;0.10;;;;;;;;;;4146329;28;20123;-45
2023/03/29 01:28:14;;;;;;;0.40;0.20;;;;;;;;;;4146093;28;20053;-42
2023/03/29 01:30:22;;;;;;;0.10;0.10;;;;;;;;;;4145457;28;20189;-42
2023/03/29 01:32:25;;;;;;;0.63;0.10;;;;;;;;;;4145680;28;20180;-43
2023/03/29 01:34:34;;;;;;;0.25;0.20;;;;;;;;;;4144992;28;20057;-43
2023/03/29 01:36:53;;;;;;;0.10;0.10;;;;;;;;;;4144900;28;20413;-42
2023/03/29 01:38:56;;;;;;;0.40;0.10;;;;;;;;;;4144911;28;20136;-43
2023/03/29 01:40:57;;;;;;;0.17;0.17;;;;;;;;;;4145196;28;20053;-43
2023/03/29 01:43:15;;;;;;;0.30;0.30;;;;;;;;;;4146293;28;20103;-42
2023/03/29 01:45:30;;;;;;;0.20;0.10;;;;;;;;;;4144592;28;20050;-43
2023/03/29 01:47:41;;;;;;;0.55;0.30;;;;;;;;;;4144637;28;20105;-43
2023/03/29 01:49:51;;;;;;;0.50;0.10;;;;;;;;;;4138414;28;20050;-43
2023/03/29 01:51:54;;;;;;;;;;;;;;;;;;4145082;28;20088;-43
2023/03/29 01:53:59;;;;;;;0.63;0.30;;;;;;;;;;4144815;28;20246;-42
2023/03/29 01:56:11;;;;;;;0.30;0.20;;;;;;;;;;4144857;28;20576;-43
2023/03/29 01:58:13;;;;;;;0.35;0.20;;;;;;;;;;4145025;28;20088;-41
2023/03/29 02:00:18;;;;;;;0.30;0.20;;;;;;;;;;4143402;28;20100;-43
2023/03/29 02:02:20;;;;;;;0.32;0.20;;;;;;;;;;4144787;28;20379;-44
2023/03/29 02:04:27;;;;;;;0.45;0.20;;;;;;;;;;4144718;28;20108;-43
2023/03/29 02:06:30;;;;;;;0.22;0.10;;;;;;;;;;4144682;28;20057;-43
2023/03/29 02:08:31;;;;;;;1.10;0.10;;;;;;;;;;4144155;28;20528;-45
2023/03/29 02:10:34;;;;;;;0.20;0.20;;;;;;;;;;4146349;28;20112;-43
2023/03/29 02:12:35;;;;;;;0.10;0.10;;;;;;;;;;4145773;28;20548;-44
2023/03/29 02:14:37;;;;;;;0.73;0.28;;;;;;;;;;4144817;28;20195;-44
2023/03/29 02:16:41;;;;;;;0.50;0.20;;;;;;;;;;4145089;28;20054;-42
2023/03/29 02:18:45;;;;;;;0.20;0.20;;;;;;;;;;4145820;28;20061;-43
2023/03/29 02:20:48;;;;;;;0.20;0.10;;;;;;;;;;4160799;28;20394;-43
2023/03/29 02:23:17;;;;;;;0.17;0.10;;;;;;;;;;4178355;28;20544;-43
2023/03/29 02:25:21;;;;;;;0.30;0.20;;;;;;;;;;4151758;28;20049;-42
2023/03/29 02:27:23;;;;;;;0.20;0.20;;;;;;;;;;4160846;28;20083;-42
2023/03/29 02:29:25;;;;;;;0.60;0.40;;;;;;;;;;4178625;28;20053;-42
2023/03/29 02:31:35;;;;;;;0.63;0.30;;;;;;;;;;4143889;28;20058;-43
2023/03/29 02:33:36;;;;;;;;;;;;;;;;;;4161464;28;20057;-42
2023/03/29 02:35:45;;;;;;;0.20;0.20;;;;;;;;;;4178708;28;19951;-43
2023/03/29 02:37:48;;;;;;;0.20;0.20;;;;;;;;;;4144319;28;20120;-42
2023/03/29 02:39:51;;;;;;;0.10;0.10;;;;;;;;;;4178402;28;20057;-42
2023/03/29 02:41:53;;;;;;;0.35;0.30;;;;;;;;;;4180869;28;20069;-43
2023/03/29 02:43:55;;;;;;;0.20;0.20;;;;;;;;;;4163664;28;20215;-43
2023/03/29 02:45:57;;;;;;;0.40;0.22;;;;;;;;;;4180720;28;20057;-44
2023/03/29 02:48:01;;;;;;;0.25;0.17;;;;;;;;;;4163093;28;20140;-44
2023/03/29 02:50:03;;;;;;;0.70;0.28;;;;;;;;;;4163695;28;20057;-43
2023/03/29 02:52:13;;;;;;;0.20;0.20;;;;;;;;;;4163582;28;20058;-43
2023/03/29 02:54:18;;;;;;;0.10;0.10;;;;;;;;;;4163388;28;20120;-42
2023/03/29 02:56:20;;;;;;;0.10;0.10;;;;;;;;;;4147046;28;20053;-43
2023/03/29 02:58:25;;;;;;;0.20;0.20;;;;;;;;;;4181319;28;20053;-43
2023/03/29 03:00:27;;;;;;;0.25;0.13;;;;;;;;;;4163030;28;20440;-42
2023/03/29 03:02:28;;;;;;;0.30;0.20;;;;;;;;;;4180940;28;20180;-42
2023/03/29 03:04:32;;;;;;;0.38;0.30;;;;;;;;;;4162892;28;20057;-43
2023/03/29 03:06:36;;;;;;;0.28;0.20;;;;;;;;;;4163316;28;20413;-43
2023/03/29 03:08:37;;;;;;;0.28;0.28;;;;;;;;;;4180038;28;20056;-42
2023/03/29 03:10:39;;;;;;;0.50;0.17;;;;;;;;;;4146580;28;20058;-43
2023/03/29 03:12:41;;;;;;;0.10;0.10;;;;;;;;;;4163144;28;20054;-42
2023/03/29 03:14:43;;;;;;;0.10;0.10;;;;;;;;;;4181095;28;20083;-43
2023/03/29 03:16:45;;;;;;;0.22;0.20;;;;;;;;;;4162715;28;20061;-42
2023/03/29 03:18:49;;;;;;;0.40;0.20;;;;;;;;;;4162975;28;20049;-43
2023/03/29 03:20:57;;;;;;;0.30;0.30;;;;;;;;;;4162880;28;20496;-42
2023/03/29 03:23:02;;;;;;;0.10;0.10;;;;;;;;;;4180942;28;20090;-42
2023/03/29 03:25:04;;;;;;;0.77;0.30;;;;;;;;;;4162827;28;20057;-43
2023/03/29 03:27:07;;;;;;;0.77;0.30;;;;;;;;;;4162648;28;20057;-42
2023/03/29 03:29:10;;;;;;;0.10;0.10;;;;;;;;;;4180863;28;20102;-43
2023/03/29 03:31:40;;;;;;;0.43;0.20;;;;;;;;;;4142231;28;20454;-42
2023/03/29 03:34:18;;;;;;;0.25;0.10;;;;;;;;;;4169641;28;20053;-44
2023/03/29 03:36:33;;;;;;;0.40;0.30;;;;;;;;;;4180845;28;20068;-43
2023/03/29 03:38:36;;;;;;;0.10;0.10;;;;;;;;;;4162503;28;20068;-43
2023/03/29 03:40:38;;;;;;;0.90;0.30;;;;;;;;;;4162770;28;20103;-42
2023/03/29 03:42:40;;;;;;;0.20;0.20;;;;;;;;;;4180476;28;20049;-42
2023/03/29 03:44:42;;;;;;;0.20;0.20;;;;;;;;;;4162766;28;20511;-44
2023/03/29 03:47:04;;;;;;;0.40;0.20;;;;;;;;;;4148431;28;20493;-42
2023/03/29 03:49:07;;;;;;;0.32;0.30;;;;;;;;;;4195726;28;20053;-44
2023/03/29 03:51:13;;;;;;;0.22;0.10;;;;;;;;;;4162388;28;20057;-43
2023/03/29 03:53:15;;;;;;;0.98;0.20;;;;;;;;;;4162788;28;20053;-43
2023/03/29 03:55:35;;;;;;;0.20;0.20;;;;;;;;;;4180057;28;20493;-42
2023/03/29 03:57:46;;;;;;;0.10;0.10;;;;;;;;;;4195784;28;20056;-43
2023/03/29 03:59:50;;;;;;;0.60;0.40;;;;;;;;;;4162584;28;20061;-43
2023/03/29 04:02:00;;;;;;;0.57;0.22;;;;;;;;;;4162224;28;20373;-43
2023/03/29 04:04:01;;;;;;;0.20;0.15;;;;;;;;;;4162445;28;20410;-42
2023/03/29 04:06:03;;;;;;;0.38;0.17;;;;;;;;;;4146196;28;20428;-42
2023/03/29 04:08:21;;;;;;;0.10;0.10;;;;;;;;;;4160932;28;20501;-43
2023/03/29 04:10:41;;;;;;;0.13;0.10;;;;;;;;;;4179913;28;20578;-43
2023/03/29 04:12:47;;;;;;;0.20;0.10;;;;;;;;;;4161774;28;20045;-42
2023/03/29 04:14:49;;;;;;;0.60;0.20;;;;;;;;;;4162036;28;20489;-42
2023/03/29 04:16:55;;;;;;;1.13;0.30;;;;;;;;;;4177582;28;20585;-42
2023/03/29 04:19:23;;;;;;;0.25;0.15;;;;;;;;;;4154900;28;20182;-44
2023/03/29 04:21:25;;;;;;;0.10;0.10;;;;;;;;;;4145528;28;20058;-43
2023/03/29 04:23:45;;;;;;;0.28;0.20;;;;;;;;;;4179794;28;20041;-42
2023/03/29 04:25:47;;;;;;;0.50;0.25;;;;;;;;;;4179561;28;20389;-41
2023/03/29 04:28:06;;;;;;;0.73;0.20;;;;;;;;;;4145402;28;20053;-42
2023/03/29 04:30:20;;;;;;;0.17;0.10;;;;;;;;;;4152560;28;20060;-42
2023/03/29 04:32:39;;;;;;;;;;;;;;;;;;4180380;28;20075;-42
2023/03/29 04:34:43;;;;;;;0.30;0.20;;;;;;;;;;4178560;28;19955;-42
2023/03/29 04:36:45;;;;;;;0.60;0.40;;;;;;;;;;4194909;28;20052;-43
2023/03/29 04:38:53;;;;;;;0.15;0.15;;;;;;;;;;4195182;28;20049;-43
2023/03/29 04:40:54;;;;;;;0.38;0.20;;;;;;;;;;4194770;28;20060;-44
2023/03/29 04:43:29;;;;;;;0.40;0.30;;;;;;;;;;4162257;28;20059;-42
2023/03/29 04:45:43;;;;;;;2.22;0.30;;;;;;;;;;4161199;28;20061;-43
2023/03/29 04:48:08;;;;;;;0.45;0.30;;;;;;;;;;4168032;28;20072;-42
2023/03/29 04:50:12;;;;;;;0.65;0.50;;;;;;;;;;4161610;28;20112;-42
2023/03/29 04:52:18;;;;;;;0.57;0.30;;;;;;;;;;4161599;28;20061;-42
2023/03/29 04:54:19;;;;;;;1.13;0.20;;;;;;;;;;4161148;28;20065;-43
2023/03/29 04:56:51;;;;;;;0.98;0.35;;;;;;;;;;4112149;28;20054;-42
2023/03/29 04:59:11;;;;;;;0.68;0.30;;;;;;;;;;4179027;28;20099;-42
2023/03/29 05:01:13;;;;;;;0.85;0.40;;;;;;;;;;4159211;28;20053;-43
2023/03/29 05:03:18;;;;;;;0.45;0.30;;;;;;;;;;4143082;28;20064;-41
2023/03/29 05:05:42;;;;;;;1.95;0.55;;;;;;;;;;4166308;28;20056;-44
2023/03/29 05:07:44;;;;;;;1.35;0.57;;;;;;;;;;4159237;28;20167;-43
2023/03/29 05:09:46;;;;;;;0.52;0.30;;;;;;;;;;4159566;28;20061;-43
2023/03/29 05:11:48;;;;;;;1.38;0.40;;;;;;;;;;4177257;28;20060;-43
2023/03/29 05:13:50;;;;;;;3.65;0.65;;;;;;;;;;4191475;28;20145;-42
2023/03/29 05:15:51;;;;;;;1.02;0.55;;;;;;;;;;4176608;28;20061;-48
2023/03/29 05:17:53;;;;;;;2.17;0.50;;;;;;;;;;4176927;28;20064;-43
2023/03/29 05:19:54;;;;;;;1.58;0.57;;;;;;;;;;4149689;28;20054;-43
2023/03/29 05:21:58;;;;;;;0.82;0.40;;;;;;;;;;4155976;28;20111;-45
2023/03/29 05:24:00;;;;;;;1.05;0.40;;;;;;;;;;4159074;28;20057;-42
2023/03/29 05:26:38;;;;;;;1.02;0.47;;;;;;;;;;4125561;28;20125;-43
2023/03/29 05:28:40;;;;;;;0.70;0.30;;;;;;;;;;4137168;28;20524;-42
2023/03/29 05:30:42;;;;;;;2.72;0.57;;;;;;;;;;4158609;28;20061;-45
2023/03/29 05:32:54;;;;;;;0.88;0.50;;;;;;;;;;4159066;28;20416;-44
2023/03/29 05:34:58;;;;;;;1.08;0.40;;;;;;;;;;4159017;28;20050;-45
2023/03/29 05:37:01;;;;;;;0.85;0.43;;;;;;;;;;4174906;28;20057;-44
2023/03/29 05:39:07;;;;;;;1.35;0.50;;;;;;;;;;4159188;28;20440;-46
2023/03/29 05:41:10;;;;;;;4.00;0.70;;;;;;;;;;4168556;28;20435;-46
2023/03/29 05:43:30;;;;;;;2.17;0.52;;;;;;;;;;4174978;28;20542;-43
2023/03/29 05:45:32;;;;;;;1.58;0.60;;;;;;;;;;4148488;28;20528;-43
2023/03/29 05:47:34;;;;;;;0.43;0.32;;;;;;;;;;4156098;28;20078;-44
2023/03/29 05:49:36;;;;;;;2.30;0.65;;;;;;;;;;4158964;28;20057;-43
2023/03/29 05:51:47;;;;;;;0.30;0.30;;;;;;;;;;4158585;28;20091;-43
2023/03/29 05:53:50;;;;;;;1.40;0.80;;;;;;;;;;4173245;28;20049;-44
2023/03/29 05:55:52;;;;;;;2.42;0.70;;;;;;;;;;4152230;28;20457;-44
2023/03/29 05:57:56;;;;;;;2.47;0.50;;;;;;;;;;4150785;28;20116;-45
2023/03/29 06:00:15;;;;;;;2.15;0.50;;;;;;;;;;4153450;28;20061;-46
2023/03/29 06:02:17;;;;;;;1.25;0.43;;;;;;;;;;4152546;28;20065;-44
2023/03/29 06:04:25;;;;;;;3.22;0.70;;;;;;;;;;4163073;28;20061;-43
2023/03/29 06:06:41;;;;;;;1.70;0.52;;;;;;;;;;4153892;28;20127;-44
2023/03/29 06:08:43;;;;;;;1.42;0.55;;;;;;;;;;4154150;28;20760;-44
2023/03/29 06:11:03;;;;;;;1.45;0.45;;;;;;;;;;4185299;28;20047;-43
2023/03/29 06:13:23;;;;;;;1.02;0.40;;;;;;;;;;4153811;28;20471;-47
2023/03/29 06:15:25;;;;;;;1.10;0.60;;;;;;;;;;4175885;28;20052;-44
2023/03/29 06:17:38;;;;;;;1.30;0.77;;;;;;;;;;4158725;28;20053;-43
2023/03/29 06:19:41;;;;;;;3.22;0.70;;;;;;;;;;4160667;28;20113;-43
2023/03/29 06:21:42;;;;;;;1.52;0.43;;;;;;;;;;4168974;28;20064;-42
2023/03/29 06:23:47;;;;;;;1.73;0.70;;;;;;;;;;4153867;28;20711;-39
2023/03/29 06:25:51;;;;;;;3.17;0.63;;;;;;;;;;4146245;28;20136;-40
2023/03/29 06:27:53;;;;;;;3.28;0.57;;;;;;;;;;4155058;28;20501;-41
2023/03/29 06:29:55;;;;;;;3.55;0.50;;;;;;;;;;4151660;28;20053;-41
2023/03/29 06:31:56;;;;;;;2.65;1.10;;;;;;;;;;4181197;28;20059;-39
2023/03/29 06:34:17;;;;;;;1.42;0.90;;;;;;;;;;4167680;28;20536;-42
2023/03/29 06:36:33;;;;;;;2.20;0.65;;;;;;;;;;4185931;28;20102;-40
2023/03/29 06:38:35;;;;;;;1.30;0.32;;;;;;;;;;4171082;28;20097;-43
2023/03/29 06:40:48;;;;;;;1.88;0.40;;;;;;;;;;4151219;28;20062;-38
2023/03/29 06:42:56;;;;;;;3.20;0.65;;;;;;;;;;4149146;28;20053;-42
2023/03/29 06:44:58;;;;;;;1.02;0.43;;;;;;;;;;4163662;28;20056;-41
2023/03/29 06:46:59;;;;;;;0.30;0.28;;;;;;;;;;4168525;28;20447;-44
2023/03/29 06:49:01;;;;;;;1.58;0.52;;;;;;;;;;4146143;28;20689;-41
2023/03/29 06:51:18;;;;;;;2.00;0.55;;;;;;;;;;4153048;28;20558;-39
2023/03/29 06:53:20;;;;;;;0.20;0.20;;;;;;;;;;4149152;28;20111;-38
2023/03/29 06:55:30;;;;;;;;;;;;;;;;;;4145218;28;20594;-41
2023/03/29 06:57:33;;;;;;;2.20;0.40;;;;;;;;;;4141411;28;19996;-41
2023/03/29 06:59:35;;;;;;;0.93;0.60;;;;;;;;;;4156230;28;20053;-40
2023/03/29 07:01:53;;;;;;;3.00;0.50;;;;;;;;;;4137555;28;20053;-38
2023/03/29 07:04:03;;;;;;;1.25;0.50;;;;;;;;;;4161486;28;20048;-41
2023/03/29 07:06:11;;;;;;;1.02;0.43;;;;;;;;;;4126854;28;20534;-45
2023/03/29 07:08:15;;;;;;;1.33;0.60;;;;;;;;;;4140481;28;20066;-43
2023/03/29 07:10:32;;;;;;;1.30;0.40;;;;;;;;;;4117576;28;20061;-44
2023/03/29 07:12:53;;;;;;;3.38;0.70;;;;;;;;;;4090022;28;20062;-47
2023/03/29 07:14:55;;;;;;;1.15;0.50;;;;;;;;;;4116347;28;20065;-42
2023/03/29 07:16:59;;;;;;;2.38;0.57;;;;;;;;;;4124644;28;20057;-44
2023/03/29 07:19:08;;;;;;;0.95;0.52;;;;;;;;;;4107444;28;20120;-42
2023/03/29 07:21:28;;;;;;;1.27;0.52;;;;;;;;;;4123704;28;20081;-42
2023/03/29 07:23:30;;;;;;;1.75;0.70;;;;;;;;;;4124135;28;20053;-46
2023/03/29 07:25:32;;;;;;;1.27;0.60;;;;;;;;;;4122806;28;20206;-41
2023/03/29 07:27:35;;;;;;;2.65;0.43;;;;;;;;;;4126782;28;20064;-38
2023/03/29 07:29:37;;;;;;;2.40;0.63;;;;;;;;;;4115472;28;20251;-41
2023/03/29 07:31:40;;;;;;;1.13;0.40;;;;;;;;;;4121606;28;20057;-42
2023/03/29 07:34:10;;;;;;;4.10;0.70;;;;;;;;;;4144406;28;20718;-40
2023/03/29 07:36:14;;;;;;;0.50;0.35;;;;;;;;;;4106767;28;20478;-38
2023/03/29 07:38:16;;;;;;;0.90;0.60;;;;;;;;;;4106511;28;20101;-41
2023/03/29 07:40:24;;;;;;;1.23;0.30;;;;;;;;;;4150182;28;20548;-37
2023/03/29 07:42:32;;;;;;;2.30;0.50;;;;;;;;;;4151200;28;20053;-41
2023/03/29 07:44:34;;;;;;;2.03;0.30;;;;;;;;;;4122757;28;20143;-43
2023/03/29 07:46:36;;;;;;;0.52;0.32;;;;;;;;;;4122152;28;20061;-42
2023/03/29 07:48:38;;;;;;;1.20;0.30;;;;;;;;;;4139457;28;20053;-39
2023/03/29 07:50:45;;;;;;;0.77;0.30;;;;;;;;;;4127768;28;20517;-41
2023/03/29 07:52:48;;;;;;;3.22;0.82;;;;;;;;;;4130539;28;20128;-40
2023/03/29 07:54:50;;;;;;;0.70;0.40;;;;;;;;;;4142589;28;20132;-40
2023/03/29 07:56:59;;;;;;;1.47;0.40;;;;;;;;;;4120809;28;20144;-40
2023/03/29 07:59:15;;;;;;;2.25;0.30;;;;;;;;;;4117345;28;20061;-41
2023/03/29 08:01:19;;;;;;;0.65;0.30;;;;;;;;;;4102081;28;20184;-36
2023/03/29 08:03:35;;;;;;;1.08;0.25;;;;;;;;;;4144120;28;20053;-44
2023/03/29 08:05:37;;;;;;;0.52;0.30;;;;;;;;;;4123147;28;20382;-43
2023/03/29 08:07:45;;;;;;;1.10;0.40;;;;;;;;;;4161264;28;20371;-41
2023/03/29 08:09:49;;;;;;;0.45;0.30;;;;;;;;;;4146522;28;20068;-38
2023/03/29 08:11:52;;;;;;;0.50;0.38;;;;;;;;;;4127646;28;20062;-40
2023/03/29 08:14:02;;;;;;;1.42;0.40;;;;;;;;;;4132178;28;20053;-39
2023/03/29 08:16:22;;;;;;;0.85;0.32;;;;;;;;;;4137398;28;20179;-39
2023/03/29 08:18:32;;;;;;;1.35;0.50;;;;;;;;;;4129494;28;20088;-41
2023/03/29 08:20:34;;;;;;;2.30;0.60;;;;;;;;;;4115720;28;20126;-40
2023/03/29 08:22:39;;;;;;;0.63;0.30;;;;;;;;;;4122816;28;20054;-41
2023/03/29 08:24:59;;;;;;;0.90;0.50;;;;;;;;;;4145154;28;20057;-39
2023/03/29 08:27:07;;;;;;;2.22;0.30;;;;;;;;;;4128780;28;20061;-41
2023/03/29 08:29:09;;;;;;;4.13;0.50;;;;;;;;;;4113438;28;20058;-43
2023/03/29 08:31:10;;;;;;;2.25;0.50;;;;;;;;;;4120330;28;20460;-42
2023/03/29 08:33:15;;;;;;;2.03;0.50;;;;;;;;;;4156568;28;21633;-43
2023/03/29 08:35:17;;;;;;;0.73;0.32;;;;;;;;;;4138385;28;20100;-40
2023/03/29 08:37:30;;;;;;;2.70;0.40;;;;;;;;;;4121163;28;20411;-44
2023/03/29 08:39:32;;;;;;;0.95;0.20;;;;;;;;;;4128629;28;20049;-40
2023/03/29 08:42:08;;;;;;;0.50;0.30;;;;;;;;;;4112463;28;20485;-38
2023/03/29 08:44:35;;;;;;;0.38;0.32;;;;;;;;;;4126022;28;20053;-42
2023/03/29 08:46:48;;;;;;;1.75;0.45;;;;;;;;;;4107136;28;20478;-41
2023/03/29 08:49:03;;;;;;;0.88;0.35;;;;;;;;;;4131496;28;21993;-41
2023/03/29 08:51:28;;;;;;;0.45;0.30;;;;;;;;;;4109477;28;20061;-42
2023/03/29 08:53:43;;;;;;;0.13;0.13;;;;;;;;;;4123556;28;20605;-43
2023/03/29 08:55:54;;;;;;;1.00;0.40;;;;;;;;;;4104844;28;20057;-40
2023/03/29 08:58:33;;;;;;;0.22;0.22;;;;;;;;;;4110573;28;20054;-41
2023/03/29 09:00:41;;;;;;;0.30;0.30;;;;;;;;;;4103531;28;20156;-42
2023/03/29 09:02:44;;;;;;;1.20;0.20;;;;;;;;;;4117502;28;20053;-40
2023/03/29 09:04:47;;;;;;;0.90;0.30;;;;;;;;;;4152587;28;20099;-43
2023/03/29 09:07:05;;;;;;;1.90;0.30;;;;;;;;;;4138856;28;20081;-39
2023/03/29 09:09:24;;;;;;;0.50;0.40;;;;;;;;;;4149866;28;20490;-40
2023/03/29 09:11:33;;;;;;;0.32;0.22;;;;;;;;;;4150892;28;20418;-46
2023/03/29 09:13:58;;;;;;;0.30;0.20;;;;;;;;;;4161232;28;20049;-41
2023/03/29 09:16:20;;;;;;;0.55;0.30;;;;;;;;;;4128442;28;20057;-42
2023/03/29 09:18:37;;;;;;;1.63;0.30;;;;;;;;;;4128347;28;20060;-45
2023/03/29 09:20:53;;;;;;;1.15;0.30;;;;;;;;;;4131042;28;20057;-43
2023/03/29 09:23:10;;;;;;;1.63;0.40;;;;;;;;;;4129383;28;20425;-42
2023/03/29 09:25:47;;;;;;;1.63;0.30;;;;;;;;;;4132831;28;20056;-40
2023/03/29 09:27:58;;;;;;;0.68;0.30;;;;;;;;;;4122896;28;20108;-44
2023/03/29 09:30:25;;;;;;;1.83;0.20;;;;;;;;;;4115655;28;20059;-39
2023/03/29 09:33:03;;;;;;;1.65;0.43;;;;;;;;;;4126418;28;20495;-41
2023/03/29 09:35:31;;;;;;;1.65;0.43;;;;;;;;;;4128496;28;20797;-39
2023/03/29 09:37:36;;;;;;;0.60;0.40;;;;;;;;;;4119423;28;21141;-41
2023/03/29 09:39:38;;;;;;;0.60;0.40;;;;;;;;;;4122253;28;20727;-42
2023/03/29 09:42:06;;;;;;;0.80;0.30;;;;;;;;;;4113051;28;20550;-39
2023/03/29 09:44:12;;;;;;;0.50;0.30;;;;;;;;;;4106530;28;20057;-39
2023/03/29 09:46:28;;;;;;;0.88;0.40;;;;;;;;;;4113622;28;20552;-42
2023/03/29 09:48:36;;;;;;;1.50;0.57;;;;;;;;;;4112031;28;20062;-43
2023/03/29 09:50:42;;;;;;;0.88;0.50;;;;;;;;;;4124409;28;20058;-39
2023/03/29 09:52:47;;;;;;;0.73;0.40;;;;;;;;;;4139878;28;20057;-43
2023/03/29 09:54:53;;;;;;;1.17;0.85;;;;;;;;;;4143273;28;20163;-41
2023/03/29 09:57:24;;;;;;;1.33;0.60;;;;;;;;;;4116820;28;20058;-47
2023/03/29 09:59:26;;;;;;;2.80;0.50;;;;;;;;;;4117208;28;20116;-40
2023/03/29 10:01:36;;;;;;;1.45;0.50;;;;;;;;;;4130688;28;20076;-44
2023/03/29 10:03:38;;;;;;;1.27;0.52;;;;;;;;;;4121724;28;20112;-45
2023/03/29 10:05:48;;;;;;;1.10;0.45;;;;;;;;;;4150018;28;20060;-43
2023/03/29 10:07:54;;;;;;;2.47;0.55;;;;;;;;;;4131714;28;20108;-40
2023/03/29 10:09:59;;;;;;;1.45;0.60;;;;;;;;;;4122183;28;20382;-47
2023/03/29 10:12:05;;;;;;;0.50;0.40;;;;;;;;;;4128978;28;20057;-42
2023/03/29 10:14:12;;;;;;;1.13;0.65;;;;;;;;;;4136146;28;20100;-44
2023/03/29 10:16:40;;;;;;;0.88;0.38;;;;;;;;;;4160503;28;20114;-42
2023/03/29 10:18:42;;;;;;;1.50;0.50;;;;;;;;;;4138409;28;20653;-40
2023/03/29 10:20:46;;;;;;;1.08;0.52;;;;;;;;;;4152211;28;21023;-38
2023/03/29 10:22:57;;;;;;;2.78;0.88;;;;;;;;;;4150548;28;20054;-38
2023/03/29 10:24:58;;;;;;;1.83;0.50;;;;;;;;;;4149552;28;20370;-41
2023/03/29 10:27:02;;;;;;;2.85;0.65;;;;;;;;;;4141393;28;20057;-42
2023/03/29 10:29:05;;;;;;;1.35;0.50;;;;;;;;;;4127638;28;20065;-40
2023/03/29 10:31:16;;;;;;;0.60;0.30;;;;;;;;;;4138026;28;20053;-38
2023/03/29 10:33:20;;;;;;;1.30;0.60;;;;;;;;;;4140706;28;20057;-41
2023/03/29 10:35:32;;;;;;;1.38;0.60;;;;;;;;;;4132048;28;20135;-40
2023/03/29 10:37:33;;;;;;;1.13;0.40;;;;;;;;;;4125015;28;20061;-41
2023/03/29 10:39:36;;;;;;;2.63;0.50;;;;;;;;;;4149176;28;20648;-43
2023/03/29 10:41:37;;;;;;;1.52;0.75;;;;;;;;;;4135506;28;20502;-38
2023/03/29 10:43:44;;;;;;;0.80;0.40;;;;;;;;;;4120173;28;20095;-37
2023/03/29 10:46:26;;;;;;;0.85;0.55;;;;;;;;;;4141387;28;20057;-44
2023/03/29 10:48:29;;;;;;;0.73;0.47;;;;;;;;;;4138057;28;20366;-42
2023/03/29 10:50:33;;;;;;;1.08;0.50;;;;;;;;;;4149547;28;20060;-43
2023/03/29 10:52:35;;;;;;;0.75;0.55;;;;;;;;;;4144049;28;20056;-37
2023/03/29 10:54:36;;;;;;;0.60;0.50;;;;;;;;;;4135131;28;20057;-39
2023/03/29 10:56:54;;;;;;;0.60;0.43;;;;;;;;;;4133375;28;20058;-41
2023/03/29 10:58:56;;;;;;;0.63;0.35;;;;;;;;;;4141340;28;20064;-40
2023/03/29 11:00:57;;;;;;;0.60;0.40;;;;;;;;;;4139903;28;20108;-36
2023/03/29 11:03:03;;;;;;;0.68;0.40;;;;;;;;;;4128935;28;20949;-43
2023/03/29 11:05:30;;;;;;;0.90;0.50;;;;;;;;;;4126095;28;20053;-39
2023/03/29 11:07:37;;;;;;;0.50;0.30;;;;;;;;;;4156862;28;20103;-42
2023/03/29 11:09:51;;;;;;;1.10;0.60;;;;;;;;;;4128265;28;20104;-37
2023/03/29 11:12:11;;;;;;;0.38;0.38;;;;;;;;;;4120642;28;20509;-40
2023/03/29 11:14:33;;;;;;;1.45;0.50;;;;;;;;;;4144983;28;20589;-44
2023/03/29 11:17:07;;;;;;;1.27;0.52;;;;;;;;;;4137092;28;20124;-40
2023/03/29 11:19:23;;;;;;;1.08;0.45;;;;;;;;;;4110878;28;20091;-46
2023/03/29 11:22:11;;;;;;;0.80;0.45;;;;;;;;;;4126808;28;20055;-39
2023/03/29 11:24:21;;;;;;;1.05;0.50;;;;;;;;;;4089927;28;20142;-42
2023/03/29 11:26:39;;;;;;;0.93;0.50;;;;;;;;;;4121192;28;20061;-40
2023/03/29 11:28:46;;;;;;;0.93;0.28;;;;;;;;;;4131004;28;20053;-42
2023/03/29 11:31:23;;;;;;;0.70;0.45;;;;;;;;;;4136952;28;20060;-41
2023/03/29 11:33:32;;;;;;;1.65;0.28;;;;;;;;;;4084959;28;20472;-44
2023/03/29 11:35:41;;;;;;;2.53;0.50;;;;;;;;;;4127805;28;20136;-39
2023/03/29 11:37:48;;;;;;;3.90;0.45;;;;;;;;;;4127610;28;20497;-45
2023/03/29 11:40:08;;;;;;;0.32;0.28;;;;;;;;;;4132572;28;20160;-43
2023/03/29 11:42:31;;;;;;;0.95;0.22;;;;;;;;;;4138236;28;20057;-41
2023/03/29 11:44:34;;;;;;;0.35;0.20;;;;;;;;;;4110724;28;20301;-41
2023/03/29 11:46:48;;;;;;;0.60;0.40;;;;;;;;;;4108114;28;20980;-38
2023/03/29 11:48:55;;;;;;;0.40;0.30;;;;;;;;;;4132461;28;20053;-42
2023/03/29 11:51:10;;;;;;;0.30;0.20;;;;;;;;;;4145813;28;20123;-40
2023/03/29 11:53:16;;;;;;;0.73;0.40;;;;;;;;;;4123274;28;20058;-45
2023/03/29 11:55:22;;;;;;;0.40;0.30;;;;;;;;;;4139615;28;20053;-42
2023/03/29 11:57:55;;;;;;;0.75;0.40;;;;;;;;;;4138986;28;20092;-39
2023/03/29 12:00:17;;;;;;;1.50;0.30;;;;;;;;;;4127385;28;20093;-45
2023/03/29 12:02:34;;;;;;;0.57;0.20;;;;;;;;;;4146616;28;20049;-47
2023/03/29 12:04:43;;;;;;;0.50;0.28;;;;;;;;;;4142861;28;20057;-44
2023/03/29 12:06:49;;;;;;;0.30;0.20;;;;;;;;;;4120574;28;20092;-41
2023/03/29 12:09:21;;;;;;;0.82;0.28;;;;;;;;;;4137641;28;20769;-41
2023/03/29 12:11:37;;;;;;;0.47;0.20;;;;;;;;;;4134541;28;20088;-43
2023/03/29 12:13:44;;;;;;;0.40;0.30;;;;;;;;;;4161792;28;20052;-38
2023/03/29 12:15:56;;;;;;;0.60;0.30;;;;;;;;;;4143764;28;20061;-38
2023/03/29 12:18:21;;;;;;;0.38;0.20;;;;;;;;;;4143362;28;20050;-39
2023/03/29 12:20:27;;;;;;;0.52;0.20;;;;;;;;;;4155907;28;20504;-43
2023/03/29 12:22:30;;;;;;;0.85;0.30;;;;;;;;;;4142279;28;20409;-41
2023/03/29 12:24:34;;;;;;;0.32;0.20;;;;;;;;;;4138604;28;20466;-41
2023/03/29 12:26:51;;;;;;;0.73;0.30;;;;;;;;;;4143725;28;20058;-44
2023/03/29 12:29:20;;;;;;;1.08;0.22;;;;;;;;;;4138964;28;20195;-41
2023/03/29 12:31:33;;;;;;;0.55;0.20;;;;;;;;;;4154640;28;20941;-43
2023/03/29 12:33:47;;;;;;;0.88;0.30;;;;;;;;;;4139359;28;20139;-41
2023/03/29 12:36:50;;;;;;;0.30;0.20;;;;;;;;;;4128921;28;20695;-41
2023/03/29 12:39:17;;;;;;;0.95;0.30;;;;;;;;;;4119608;28;20115;-43
2023/03/29 12:41:40;;;;;;;0.77;0.20;;;;;;;;;;4138979;28;20049;-40
2023/03/29 12:44:02;;;;;;;0.22;0.15;;;;;;;;;;4158749;28;20053;-42
2023/03/29 12:46:23;;;;;;;0.15;0.10;;;;;;;;;;4156288;28;20626;-39
2023/03/29 12:48:27;;;;;;;0.57;0.22;;;;;;;;;;4160716;28;20101;-40
2023/03/29 12:50:36;;;;;;;0.35;0.20;;;;;;;;;;4163007;28;20415;-42
2023/03/29 12:52:40;;;;;;;0.70;0.10;;;;;;;;;;4144905;28;20152;-43
2023/03/29 12:54:55;;;;;;;0.63;0.20;;;;;;;;;;4143172;28;20104;-42
2023/03/29 12:57:01;;;;;;;0.43;0.25;;;;;;;;;;4158082;28;20283;-40